Time;durP1;ratioP1;P1;durP2;ratioP2;P2;SDS_P1;SDS_P2;PMS_P1;PMS_P2;Temp;Humidity;BMP_temperature;BMP_pressure;BME280_temperature;BME280_humidity;BME280_pressure;Samples;Min_cycle;Max_cycle;Signal;HPM_P1;HPM_P2
2023/07/09 00:01:23;;;;;;;3.90;2.08;;;;;;;23.64;43.38;99993.72;4418157;32;33419;-68
2023/07/09 00:03:54;;;;;;;3.08;1.65;;;;;;;23.60;43.45;99997.88;4431691;32;33387;-69
2023/07/09 00:06:21;;;;;;;4.80;2.55;;;;;;;23.53;43.53;99994.22;4430152;32;34880;-68
2023/07/09 00:08:49;;;;;;;4.10;2.22;;;;;;;23.56;43.48;100001.16;4429279;32;32721;-69
2023/07/09 00:11:17;;;;;;;3.95;2.22;;;;;;;23.53;43.44;100002.44;4411075;32;33639;-69
2023/07/09 00:13:45;;;;;;;3.80;1.95;;;;;;;23.43;43.60;100005.44;4426708;32;35457;-68
2023/07/09 00:16:16;;;;;;;7.87;2.35;;;;;;;23.56;43.35;100003.91;4430776;32;34579;-69
2023/07/09 00:18:44;;;;;;;5.57;2.42;;;;;;;23.57;43.37;100000.16;4411356;32;32600;-69
2023/07/09 00:21:12;;;;;;;4.90;2.72;;;;;;;23.49;43.51;100006.56;4429426;32;33717;-68
2023/07/09 00:23:41;;;;;;;5.28;2.28;;;;;;;23.46;43.43;99996.84;4430451;32;33606;-68
2023/07/09 00:26:15;;;;;;;2.78;1.75;;;;;;;23.53;43.32;100001.56;4430506;32;33042;-68
2023/07/09 00:28:43;;;;;;;3.47;1.83;;;;;;;23.47;43.35;99995.00;4423436;32;33947;-68
2023/07/09 00:31:16;;;;;;;6.50;2.22;;;;;;;23.39;43.66;100003.28;4429440;32;34573;-68
2023/07/09 00:33:45;;;;;;;4.47;2.20;;;;;;;23.42;43.65;99998.28;4434047;32;33858;-68
2023/07/09 00:36:25;;;;;;;7.78;2.20;;;;;;;23.42;43.56;99987.34;4432070;32;33398;-69
2023/07/09 00:38:53;;;;;;;7.35;2.87;;;;;;;23.42;43.51;100005.63;4425510;32;33284;-68
2023/07/09 00:41:22;;;;;;;4.75;2.87;;;;;;;23.43;43.51;100001.84;4434186;32;34657;-68
2023/07/09 00:43:51;;;;;;;5.03;2.37;;;;;;;23.43;43.48;100005.44;4432331;32;34027;-68
2023/07/09 00:46:18;;;;;;;4.00;2.35;;;;;;;23.41;43.53;100006.69;4431449;32;35589;-68
2023/07/09 00:48:50;;;;;;;3.25;2.17;;;;;;;23.36;43.76;100003.66;4427694;32;34474;-68
2023/07/09 00:51:21;;;;;;;3.33;2.45;;;;;;;23.41;43.53;100001.22;4429670;32;35234;-68
2023/07/09 00:53:52;;;;;;;4.03;2.05;;;;;;;23.41;43.67;100007.53;4430275;32;33637;-68
2023/07/09 00:56:38;;;;;;;4.07;2.00;;;;;;;23.40;44.02;100000.37;4414639;32;35293;-67
2023/07/09 00:59:09;;;;;;;3.25;1.65;;;;;;;23.49;44.17;99996.47;4415567;32;33154;-67
2023/07/09 01:01:40;;;;;;;4.90;2.67;;;;;;;23.54;44.14;100001.38;4403790;32;32267;-67
2023/07/09 01:04:10;;;;;;;4.32;1.92;;;;;;;23.43;43.26;100004.59;4402878;32;33865;-67
2023/07/09 01:06:43;;;;;;;4.50;2.45;;;;;;;23.41;42.87;100001.22;4401043;32;33168;-67
2023/07/09 01:09:10;;;;;;;6.28;2.55;;;;;;;23.19;43.80;99997.59;4411402;32;34057;-67
2023/07/09 01:11:38;;;;;;;4.85;2.37;;;;;;;23.30;43.63;99998.97;4412503;32;35216;-67
2023/07/09 01:14:08;;;;;;;4.35;2.12;;;;;;;23.38;43.56;99999.72;4414202;32;33808;-67
2023/07/09 01:16:45;;;;;;;4.22;2.28;;;;;;;23.29;43.90;99997.28;4411773;32;34702;-67
2023/07/09 01:19:13;;;;;;;4.35;2.25;;;;;;;23.27;43.98;100002.09;4408812;32;34076;-67
2023/07/09 01:21:42;;;;;;;5.53;2.55;;;;;;;23.19;44.20;99992.13;4398157;32;33100;-67
2023/07/09 01:24:15;;;;;;;5.75;2.70;;;;;;;23.13;44.34;99992.87;4390812;32;35048;-67
2023/07/09 01:26:46;;;;;;;2.50;1.65;;;;;;;23.05;44.40;99991.13;4400659;32;31782;-67
2023/07/09 01:29:13;;;;;;;4.78;2.25;;;;;;;23.01;44.46;99992.50;4397907;32;34049;-67
2023/07/09 01:31:41;;;;;;;3.53;1.85;;;;;;;23.02;44.38;99992.34;4401171;32;33501;-67
2023/07/09 01:34:09;;;;;;;4.20;2.05;;;;;;;23.06;44.31;100002.87;4400513;32;34789;-67
2023/07/09 01:36:39;;;;;;;5.28;2.50;;;;;;;23.07;44.22;99994.47;4398962;32;32349;-67
2023/07/09 01:39:07;;;;;;;5.40;2.35;;;;;;;23.04;44.30;99992.13;4395927;32;34543;-67
2023/07/09 01:41:35;;;;;;;10.55;2.58;;;;;;;23.04;44.26;99996.75;4400953;32;33726;-67
2023/07/09 01:44:04;;;;;;;3.67;2.25;;;;;;;23.03;44.31;99998.63;4398671;32;35185;-67
2023/07/09 01:46:32;;;;;;;4.12;2.42;;;;;;;23.01;44.38;100000.69;4398668;32;33405;-67
2023/07/09 01:49:00;;;;;;;6.70;2.33;;;;;;;22.92;44.59;100002.66;4395728;32;33080;-67
2023/07/09 01:51:29;;;;;;;3.58;2.08;;;;;;;22.92;44.59;100008.12;4398572;32;34662;-67
2023/07/09 01:53:56;;;;;;;3.67;2.25;;;;;;;22.87;44.71;100009.72;4429199;32;34672;-67
2023/07/09 01:56:24;;;;;;;5.53;2.45;;;;;;;22.71;45.06;100006.13;4431968;32;33756;-67
2023/07/09 01:58:51;;;;;;;6.15;2.85;;;;;;;22.61;45.32;100008.28;4434236;32;31919;-67
2023/07/09 02:01:19;;;;;;;3.97;2.28;;;;;;;22.60;45.44;100013.91;4436245;32;34146;-67
2023/07/09 02:03:47;;;;;;;4.70;2.33;;;;;;;22.24;46.26;100009.13;4435303;32;33751;-67
2023/07/09 02:06:15;;;;;;;4.28;2.05;;;;;;;22.31;46.18;100013.69;4431531;32;32340;-67
2023/07/09 02:08:43;;;;;;;6.78;1.83;;;;;;;22.31;46.18;100016.41;4432476;32;33195;-68
2023/07/09 02:11:10;;;;;;;2.55;1.80;;;;;;;22.34;46.14;100017.91;4435530;32;33634;-68
2023/07/09 02:13:38;;;;;;;5.20;2.05;;;;;;;22.37;46.07;100017.53;4436422;32;34202;-68
2023/07/09 02:16:05;;;;;;;5.65;1.62;;;;;;;22.24;46.29;100020.03;4433722;32;34045;-68
2023/07/09 02:18:34;;;;;;;4.62;2.50;;;;;;;22.24;46.20;100022.78;4432538;32;33129;-68
2023/07/09 02:21:02;;;;;;;3.28;2.12;;;;;;;22.23;46.21;100032.00;4435101;32;34732;-68
2023/07/09 02:23:29;;;;;;;4.03;2.20;;;;;;;22.24;46.05;100025.50;4434060;32;33664;-68
2023/07/09 02:25:58;;;;;;;3.37;1.77;;;;;;;22.31;45.86;100021.00;4433427;32;33933;-68
2023/07/09 02:28:26;;;;;;;4.72;2.08;;;;;;;22.34;45.71;100023.34;4428924;32;33155;-68
2023/07/09 02:30:53;;;;;;;2.92;1.95;;;;;;;22.32;45.89;100028.16;4433330;32;33661;-68
2023/07/09 02:33:22;;;;;;;3.33;1.80;;;;;;;22.28;45.97;100027.69;4431482;32;34019;-68
2023/07/09 02:35:49;;;;;;;3.83;2.47;;;;;;;22.38;45.63;100032.03;4429121;32;34478;-68
2023/07/09 02:38:17;;;;;;;4.10;2.25;;;;;;;22.38;45.56;100034.78;4428885;32;33510;-68
2023/07/09 02:40:45;;;;;;;2.70;1.65;;;;;;;22.45;45.44;100031.09;4430724;32;33777;-68
2023/07/09 02:43:12;;;;;;;2.80;1.80;;;;;;;22.49;45.43;100029.69;4435790;32;34131;-70
2023/07/09 02:45:40;;;;;;;3.83;1.98;;;;;;;22.50;45.29;100031.41;4429994;32;34399;-69
2023/07/09 02:48:08;;;;;;;5.15;2.60;;;;;;;22.46;45.28;100029.22;4434736;32;34056;-69
2023/07/09 02:50:36;;;;;;;4.78;2.20;;;;;;;22.47;45.32;100023.59;4434952;32;33856;-68
2023/07/09 02:53:03;;;;;;;3.33;2.12;;;;;;;22.42;45.46;100027.91;4434036;32;34034;-68
2023/07/09 02:55:31;;;;;;;3.15;1.95;;;;;;;22.36;45.61;100029.47;4432943;32;33698;-68
2023/07/09 02:57:59;;;;;;;6.43;2.33;;;;;;;22.36;45.61;100034.09;4430869;32;34126;-73
2023/07/09 03:00:26;;;;;;;5.00;2.30;;;;;;;22.34;45.65;100034.25;4433130;32;34050;-71
2023/07/09 03:02:54;;;;;;;3.97;1.67;;;;;;;22.31;45.63;100035.50;4434926;32;34890;-69
2023/07/09 03:05:22;;;;;;;3.95;2.17;;;;;;;22.37;45.44;100043.97;4432661;32;33681;-69
2023/07/09 03:07:49;;;;;;;4.22;2.50;;;;;;;22.33;45.43;100038.88;4432692;32;34511;-69
2023/07/09 03:10:17;;;;;;;5.18;2.37;;;;;;;22.28;45.56;100038.59;4431664;32;34807;-69
2023/07/09 03:12:45;;;;;;;8.85;2.40;;;;;;;22.18;45.71;100037.13;4435635;32;34536;-69
2023/07/09 03:15:12;;;;;;;6.30;2.40;;;;;;;22.12;45.95;100041.44;4434162;32;33727;-69
2023/07/09 03:17:40;;;;;;;4.43;2.22;;;;;;;22.03;46.14;100042.50;4436094;32;34436;-70
2023/07/09 03:20:08;;;;;;;4.07;2.30;;;;;;;21.96;46.28;100047.84;4434050;32;33706;-70
2023/07/09 03:22:36;;;;;;;3.97;2.58;;;;;;;21.81;46.69;100039.59;4435478;32;33999;-70
2023/07/09 03:25:04;;;;;;;6.15;2.35;;;;;;;21.84;46.69;100043.84;4435262;32;33558;-70
2023/07/09 03:27:32;;;;;;;3.92;1.73;;;;;;;21.91;46.58;100049.41;4433040;32;34080;-69
2023/07/09 03:30:00;;;;;;;4.35;2.00;;;;;;;21.88;46.70;100050.63;4434826;32;33582;-69
2023/07/09 03:32:28;;;;;;;4.25;2.17;;;;;;;21.97;46.62;100051.41;4434320;32;33940;-69
2023/07/09 03:34:56;;;;;;;3.55;2.22;;;;;;;21.91;46.74;100052.97;4436128;32;33888;-68
2023/07/09 03:37:23;;;;;;;3.17;1.75;;;;;;;21.95;46.72;100051.56;4434935;32;34579;-69
2023/07/09 03:39:51;;;;;;;5.30;2.95;;;;;;;21.90;47.00;100056.75;4430275;32;33723;-70
2023/07/09 03:42:18;;;;;;;4.00;2.33;;;;;;;21.86;47.15;100058.97;4426400;32;33530;-69
2023/07/09 03:44:46;;;;;;;6.53;2.72;;;;;;;21.77;47.29;100057.34;4434360;32;33640;-67
2023/07/09 03:47:14;;;;;;;5.78;2.83;;;;;;;21.77;47.28;100053.75;4433593;32;32703;-67
2023/07/09 03:49:41;;;;;;;5.00;2.28;;;;;;;21.81;47.08;100057.81;4432736;32;34776;-69
2023/07/09 03:52:09;;;;;;;5.72;2.67;;;;;;;21.85;46.99;100053.69;4425483;32;33887;-68
2023/07/09 03:54:37;;;;;;;5.40;2.47;;;;;;;21.94;46.72;100052.62;4432966;32;35520;-69
2023/07/09 03:57:06;;;;;;;4.87;1.98;;;;;;;21.98;46.74;100053.94;4434981;32;33508;-68
2023/07/09 03:59:33;;;;;;;4.07;1.85;;;;;;;22.06;46.68;100053.91;4426380;32;33558;-68
2023/07/09 04:02:03;;;;;;;5.28;2.08;;;;;;;22.09;46.77;100053.53;4431060;32;33865;-68
2023/07/09 04:04:30;;;;;;;4.93;2.65;;;;;;;22.19;46.56;100049.75;4424462;32;34473;-69
2023/07/09 04:06:58;;;;;;;4.12;2.40;;;;;;;22.29;46.36;100053.91;4427280;32;33280;-68
2023/07/09 04:09:25;;;;;;;5.75;2.47;;;;;;;22.36;46.33;100045.84;4431043;32;34605;-66
2023/07/09 04:11:53;;;;;;;8.25;2.72;;;;;;;22.42;46.35;100050.56;4430907;32;33659;-67
2023/07/09 04:14:21;;;;;;;5.07;1.95;;;;;;;22.45;46.42;100052.09;4430193;32;34244;-68
2023/07/09 04:16:48;;;;;;;5.37;2.85;;;;;;;22.30;46.84;100047.41;4429884;32;34183;-66
2023/07/09 04:19:16;;;;;;;5.90;2.58;;;;;;;22.51;46.53;100059.53;4432074;32;33394;-67
2023/07/09 04:21:44;;;;;;;4.30;2.67;;;;;;;22.58;46.55;100060.47;4430979;32;33075;-68
2023/07/09 04:24:11;;;;;;;5.28;2.12;;;;;;;22.51;46.69;100049.47;4431906;32;33567;-67
2023/07/09 04:26:40;;;;;;;8.27;2.12;;;;;;;22.53;46.74;100050.13;4427793;32;33614;-68
2023/07/09 04:29:07;;;;;;;5.30;2.15;;;;;;;22.51;46.94;100049.47;4424345;32;34942;-67
2023/07/09 04:31:35;;;;;;;4.55;2.78;;;;;;;22.58;46.63;100046.00;4430619;32;33649;-67
2023/07/09 04:34:04;;;;;;;3.53;2.20;;;;;;;22.63;46.56;100049.00;4429940;32;33635;-68
2023/07/09 04:36:31;;;;;;;4.47;1.95;;;;;;;22.68;46.59;100046.56;4434435;32;33150;-70
2023/07/09 04:38:59;;;;;;;4.65;2.30;;;;;;;22.83;46.08;100047.44;4434001;32;33451;-70
2023/07/09 04:41:27;;;;;;;3.42;2.20;;;;;;;22.99;45.95;100044.56;4433173;32;33961;-69
2023/07/09 04:43:54;;;;;;;4.85;3.05;;;;;;;23.09;45.71;100049.75;4434396;32;34464;-70
2023/07/09 04:46:22;;;;;;;5.55;2.72;;;;;;;23.31;44.86;100050.69;4425869;32;34088;-69
2023/07/09 04:48:50;;;;;;;5.47;2.70;;;;;;;23.48;43.95;100051.31;4434284;32;34743;-69
2023/07/09 04:51:17;;;;;;;4.32;2.22;;;;;;;23.42;43.68;100052.91;4434150;32;33846;-69
2023/07/09 04:53:45;;;;;;;5.90;2.30;;;;;;;23.76;43.20;100053.38;4430493;32;33285;-69
2023/07/09 04:56:13;;;;;;;5.75;2.75;;;;;;;23.73;43.53;100049.12;4432430;32;33193;-69
2023/07/09 04:58:40;;;;;;;4.75;2.37;;;;;;;23.93;43.39;100055.66;4434061;32;33808;-69
2023/07/09 05:01:08;;;;;;;5.18;2.33;;;;;;;23.99;43.44;100056.78;4425408;32;34000;-69
2023/07/09 05:03:36;;;;;;;3.55;2.22;;;;;;;24.00;43.65;100065.81;4433443;32;34035;-69
2023/07/09 05:06:04;;;;;;;4.68;2.28;;;;;;;24.04;43.69;100061.63;4434199;32;33149;-69
2023/07/09 05:08:32;;;;;;;5.32;2.75;;;;;;;24.33;43.10;100056.06;4434452;32;34748;-68
2023/07/09 05:11:00;;;;;;;5.10;2.55;;;;;;;24.22;43.25;100058.47;4424273;32;35757;-70
2023/07/09 05:13:28;;;;;;;5.03;2.22;;;;;;;24.26;43.21;100062.50;4431070;32;33658;-69
2023/07/09 05:15:55;;;;;;;5.12;2.75;;;;;;;24.58;42.56;100061.13;4429939;32;34003;-67
2023/07/09 05:18:24;;;;;;;7.28;2.75;;;;;;;24.72;42.85;100062.94;4434108;32;33947;-69
2023/07/09 05:20:51;;;;;;;5.15;2.75;;;;;;;24.96;42.25;100060.78;4429641;32;33674;-69
2023/07/09 05:23:19;;;;;;;5.75;2.50;;;;;;;25.14;42.10;100061.13;4432901;32;34950;-70
2023/07/09 05:25:46;;;;;;;3.58;2.00;;;;;;;25.24;41.96;100064.34;4433220;32;34240;-69
2023/07/09 05:28:14;;;;;;;5.37;2.75;;;;;;;25.40;42.10;100062.31;4434260;32;34692;-67
2023/07/09 05:30:42;;;;;;;6.90;2.47;;;;;;;25.49;41.47;100059.22;4422405;32;34000;-70
2023/07/09 05:33:10;;;;;;;5.00;2.42;;;;;;;25.63;40.84;100060.09;4435544;32;34851;-70
2023/07/09 05:35:37;;;;;;;4.53;2.35;;;;;;;25.63;40.71;100059.25;4436094;32;33170;-69
2023/07/09 05:38:05;;;;;;;5.90;2.95;;;;;;;26.01;39.92;100059.62;4433210;32;33768;-70
2023/07/09 05:40:32;;;;;;;8.07;2.45;;;;;;;26.18;39.81;100069.12;4425455;32;34166;-69
2023/07/09 05:43:00;;;;;;;4.82;2.28;;;;;;;26.44;39.76;100059.25;4429607;32;33558;-69
2023/07/09 05:45:28;;;;;;;7.18;3.08;;;;;;;26.71;39.64;100062.88;4435785;32;32534;-70
2023/07/09 05:47:57;;;;;;;5.25;2.55;;;;;;;26.85;39.45;100070.03;4435221;32;35247;-69
2023/07/09 05:50:26;;;;;;;7.43;2.70;;;;;;;26.96;39.36;100063.03;4435896;32;34329;-70
2023/07/09 05:52:54;;;;;;;6.75;2.75;;;;;;;26.99;39.19;100061.75;4435777;32;33344;-69
2023/07/09 05:55:21;;;;;;;5.60;2.45;;;;;;;27.08;39.01;100072.31;4435115;32;36760;-70
2023/07/09 05:57:50;;;;;;;5.65;2.65;;;;;;;27.10;39.42;100066.63;4436296;32;33657;-69
2023/07/09 06:00:17;;;;;;;6.05;2.58;;;;;;;27.15;39.56;100062.19;4434448;32;33898;-70
2023/07/09 06:02:45;;;;;;;5.87;3.03;;;;;;;27.27;39.74;100076.09;4433180;32;33582;-69
2023/07/09 06:05:14;;;;;;;6.00;3.22;;;;;;;27.31;40.98;100069.09;4436256;32;34293;-68
2023/07/09 06:07:41;;;;;;;6.53;2.72;;;;;;;27.37;41.25;100078.41;4436659;32;34173;-68
2023/07/09 06:10:09;;;;;;;7.37;3.72;;;;;;;27.32;41.75;100079.06;4428999;32;33686;-69
2023/07/09 06:12:37;;;;;;;5.43;2.75;;;;;;;27.70;41.41;100069.16;4430241;32;33842;-69
2023/07/09 06:15:05;;;;;;;10.85;3.42;;;;;;;27.86;41.05;100069.56;4433632;32;34159;-69
2023/07/09 06:17:33;;;;;;;6.25;2.67;;;;;;;27.96;40.64;100069.09;4432219;32;36931;-70
2023/07/09 06:20:00;;;;;;;5.45;3.12;;;;;;;28.01;40.97;100074.75;4434544;32;35190;-67
2023/07/09 06:22:28;;;;;;;5.25;3.25;;;;;;;27.94;40.71;100073.94;4436268;32;32590;-67
2023/07/09 06:24:56;;;;;;;4.87;2.85;;;;;;;27.98;39.14;100077.94;4437591;32;33378;-68
2023/07/09 06:27:23;;;;;;;6.20;3.12;;;;;;;28.00;40.45;100081.31;4436494;32;34733;-68
2023/07/09 06:29:51;;;;;;;5.12;2.97;;;;;;;28.27;40.29;100072.91;4429610;32;33973;-68
2023/07/09 06:32:19;;;;;;;6.00;3.33;;;;;;;28.28;39.55;100077.31;4434736;32;33796;-68
2023/07/09 06:34:46;;;;;;;7.25;2.92;;;;;;;28.48;38.90;100085.50;4431913;32;33268;-68
2023/07/09 06:37:14;;;;;;;14.55;4.20;;;;;;;28.41;38.34;100081.91;4421764;32;33632;-67
2023/07/09 06:39:42;;;;;;;5.30;3.00;;;;;;;28.44;37.23;100071.31;4426132;32;35193;-68
2023/07/09 06:42:09;;;;;;;7.47;3.58;;;;;;;28.60;38.02;100078.16;4433129;32;33595;-68
2023/07/09 06:44:42;;;;;;;7.82;2.80;;;;;;;28.76;37.80;100077.63;4436250;32;33449;-68
2023/07/09 06:47:10;;;;;;;6.07;2.67;;;;;;;28.44;35.52;100082.31;4433161;32;33517;-68
2023/07/09 06:49:38;;;;;;;5.97;3.03;;;;;;;28.53;34.75;100069.12;4433822;32;35077;-68
2023/07/09 06:52:06;;;;;;;7.75;2.35;;;;;;;28.71;34.00;100080.19;4430071;32;33494;-68
2023/07/09 06:54:34;;;;;;;5.53;2.78;;;;;;;28.56;32.36;100069.50;4435247;32;33201;-69
2023/07/09 06:57:02;;;;;;;7.55;2.80;;;;;;;28.48;32.49;100078.06;4435978;32;34607;-67
2023/07/09 06:59:29;;;;;;;5.78;3.00;;;;;;;28.24;33.99;100070.59;4433857;32;35003;-71
2023/07/09 07:01:57;;;;;;;7.47;2.65;;;;;;;28.62;33.90;100083.47;4432616;32;34412;-69
2023/07/09 07:04:26;;;;;;;8.50;2.78;;;;;;;28.28;32.31;100077.31;4430627;32;32854;-69
2023/07/09 07:06:56;;;;;;;5.57;2.78;;;;;;;28.77;31.94;100070.19;4428061;32;34034;-67
2023/07/09 07:09:24;;;;;;;5.25;2.17;;;;;;;28.99;32.66;100076.97;4433533;32;35004;-68
2023/07/09 07:11:51;;;;;;;7.20;2.83;;;;;;;28.69;33.67;100079.56;4433214;32;33866;-69
2023/07/09 07:14:19;;;;;;;4.72;2.50;;;;;;;28.94;32.29;100075.97;4434796;32;34137;-68
2023/07/09 07:16:47;;;;;;;3.80;2.30;;;;;;;28.72;33.23;100079.12;4433723;32;35245;-67
2023/07/09 07:19:14;;;;;;;5.60;2.60;;;;;;;29.14;32.98;100068.38;4428039;32;33914;-68
2023/07/09 07:21:42;;;;;;;5.15;2.75;;;;;;;29.14;33.22;100067.53;4428436;32;34844;-68
2023/07/09 07:24:10;;;;;;;6.68;3.22;;;;;;;29.06;32.96;100071.44;4435398;32;33136;-68
2023/07/09 07:26:37;;;;;;;6.22;3.20;;;;;;;29.56;32.53;100075.94;4432601;32;33648;-69
2023/07/09 07:29:05;;;;;;;6.00;2.37;;;;;;;29.71;32.45;100068.16;4434833;32;35079;-69
2023/07/09 07:31:32;;;;;;;3.97;2.35;;;;;;;29.62;31.55;100059.34;4432747;32;34739;-68
2023/07/09 07:34:00;;;;;;;5.30;2.90;;;;;;;29.76;32.02;100065.56;4433206;32;33834;-67
2023/07/09 07:36:28;;;;;;;7.30;2.40;;;;;;;29.96;31.60;100068.03;4429493;32;33518;-68
2023/07/09 07:38:58;;;;;;;9.07;2.67;;;;;;;29.75;31.33;100068.53;4431397;32;33691;-69
2023/07/09 07:41:25;;;;;;;7.45;3.15;;;;;;;29.50;31.42;100069.44;4430598;32;33652;-68
2023/07/09 07:43:53;;;;;;;5.68;2.60;;;;;;;29.94;31.52;100068.25;4436899;32;32916;-68
2023/07/09 07:46:21;;;;;;;5.45;2.92;;;;;;;29.71;30.69;100062.62;4435862;32;33787;-69
2023/07/09 07:48:49;;;;;;;6.97;2.83;;;;;;;29.25;31.44;100064.88;4435433;32;34133;-69
2023/07/09 07:51:17;;;;;;;5.25;2.15;;;;;;;29.52;31.30;100071.97;4431613;32;133807;-69
2023/07/09 07:53:44;;;;;;;4.37;2.35;;;;;;;29.71;31.41;100066.22;4434856;32;33215;-69
2023/07/09 07:56:12;;;;;;;4.95;2.28;;;;;;;29.97;32.18;100077.16;4428890;32;33661;-68
2023/07/09 07:58:40;;;;;;;6.60;3.10;;;;;;;30.07;31.53;100069.97;4433809;32;33943;-69
2023/07/09 08:01:08;;;;;;;5.50;2.30;;;;;;;29.68;31.43;100068.63;4435206;32;33821;-70
2023/07/09 08:03:36;;;;;;;4.62;2.50;;;;;;;29.73;30.88;100068.78;4435351;32;34187;-69
2023/07/09 08:06:03;;;;;;;6.22;2.83;;;;;;;29.67;31.59;100075.22;4434634;32;34061;-69
2023/07/09 08:08:31;;;;;;;12.02;2.83;;;;;;;30.01;30.86;100078.34;4430839;32;34789;-69
2023/07/09 08:11:01;;;;;;;8.27;3.00;;;;;;;30.38;30.36;100077.19;4430621;32;33720;-68
2023/07/09 08:13:28;;;;;;;6.00;2.62;;;;;;;29.64;31.82;100064.66;4434621;32;33492;-69
2023/07/09 08:15:56;;;;;;;6.12;3.15;;;;;;;29.47;31.48;100069.88;4429717;32;33431;-68
2023/07/09 08:18:24;;;;;;;5.43;2.65;;;;;;;29.79;31.61;100066.97;4432200;32;34836;-70
2023/07/09 08:20:52;;;;;;;6.18;2.95;;;;;;;29.81;32.27;100065.69;4430587;32;34116;-70
2023/07/09 08:23:19;;;;;;;6.93;2.90;;;;;;;30.10;31.12;100063.16;4431468;32;33099;-68
2023/07/09 08:25:54;;;;;;;5.87;2.90;;;;;;;30.30;30.70;100063.72;4434497;32;34962;-70
2023/07/09 08:28:22;;;;;;;6.15;3.33;;;;;;;30.19;30.45;100070.06;4428363;32;34070;-70
2023/07/09 08:30:53;;;;;;;8.38;3.35;;;;;;;30.38;30.73;100066.12;4432740;32;33639;-69
2023/07/09 08:33:21;;;;;;;4.97;2.92;;;;;;;29.80;31.03;100069.53;4433514;32;34441;-70
2023/07/09 08:35:52;;;;;;;7.07;2.92;;;;;;;30.13;30.19;100068.19;4426001;32;34630;-69
2023/07/09 08:38:21;;;;;;;6.62;3.30;;;;;;;30.13;31.33;100065.44;4421447;32;34115;-69
2023/07/09 08:40:58;;;;;;;6.22;2.92;;;;;;;30.06;31.08;100070.22;4426502;32;34523;-69
2023/07/09 08:43:48;;;;;;;6.53;3.65;;;;;;;30.55;29.78;100058.00;4431871;32;32505;-69
2023/07/09 08:46:54;;;;;;;6.80;3.55;;;;;;;30.74;29.65;100061.50;4433723;32;33784;-67
2023/07/09 08:49:38;;;;;;;5.78;2.97;;;;;;;30.72;30.36;100060.87;4431412;32;35139;-70
2023/07/09 08:52:30;;;;;;;6.03;3.17;;;;;;;30.51;29.81;100055.97;4434419;32;34792;-70
2023/07/09 08:55:04;;;;;;;7.03;3.08;;;;;;;30.41;29.43;100059.31;4435260;32;34084;-70
2023/07/09 08:57:38;;;;;;;6.35;3.10;;;;;;;30.49;29.57;100058.09;4424623;32;33594;-69
2023/07/09 09:00:30;;;;;;;6.57;2.92;;;;;;;30.64;29.36;100059.34;4426644;32;33774;-68
2023/07/09 09:03:31;;;;;;;4.97;3.17;;;;;;;30.57;29.60;100055.84;4431517;32;35089;-70
2023/07/09 09:05:59;;;;;;;6.05;2.95;;;;;;;30.56;29.38;100059.69;4430903;32;33007;-68
2023/07/09 09:08:35;;;;;;;6.47;2.90;;;;;;;31.04;27.80;100052.28;4419558;32;33729;-73
2023/07/09 09:11:11;;;;;;;7.60;3.10;;;;;;;30.95;28.00;100045.41;4427001;32;33883;-75
2023/07/09 09:13:38;;;;;;;6.93;3.20;;;;;;;31.01;28.58;100061.03;4420946;32;35463;-72
2023/07/09 09:16:24;;;;;;;5.60;2.87;;;;;;;31.27;28.19;100051.44;4424443;32;33148;-73
2023/07/09 09:18:56;;;;;;;5.57;3.08;;;;;;;30.88;27.23;100056.59;4428899;32;35001;-75
2023/07/09 09:21:32;;;;;;;6.12;3.33;;;;;;;31.06;27.15;100062.00;4413313;32;34220;-75
2023/07/09 09:24:14;;;;;;;5.10;2.95;;;;;;;31.51;27.16;100052.22;4429520;32;33881;-74
2023/07/09 09:26:43;;;;;;;6.62;3.33;;;;;;;31.86;27.41;100051.28;4426639;32;33364;-71
2023/07/09 09:29:14;;;;;;;7.18;3.80;;;;;;;31.84;27.24;100056.19;4429054;32;33355;-76
2023/07/09 09:31:45;;;;;;;6.80;3.28;;;;;;;31.86;27.28;100048.50;4426152;32;35118;-75
2023/07/09 09:34:26;;;;;;;5.65;2.92;;;;;;;31.46;28.38;100058.50;4427709;32;34470;-73
2023/07/09 09:36:55;;;;;;;4.57;2.45;;;;;;;31.47;27.44;100048.28;4427115;32;34188;-73
2023/07/09 09:39:25;;;;;;;5.55;2.80;;;;;;;31.40;28.06;100056.72;4428088;32;33627;-73
2023/07/09 09:41:56;;;;;;;10.35;3.53;;;;;;;31.67;27.73;100056.16;4427076;32;34787;-75
2023/07/09 09:44:27;;;;;;;5.70;3.03;;;;;;;31.86;27.44;100062.34;4429494;32;33994;-70
2023/07/09 09:46:58;;;;;;;8.35;3.33;;;;;;;32.23;26.21;100060.00;4422842;32;33191;-76
2023/07/09 09:49:28;;;;;;;6.47;2.87;;;;;;;32.22;26.10;100056.41;4426777;32;33701;-75
2023/07/09 09:51:56;;;;;;;6.57;2.75;;;;;;;32.65;26.23;100049.41;4415452;32;34019;-69
2023/07/09 09:54:30;;;;;;;5.25;2.97;;;;;;;32.80;26.05;100050.72;4426833;32;33680;-70
2023/07/09 09:56:58;;;;;;;5.30;2.90;;;;;;;32.59;27.12;100044.88;4424774;32;33048;-71
2023/07/09 09:59:33;;;;;;;4.87;2.37;;;;;;;32.94;25.62;100046.53;4426379;32;33735;-72
2023/07/09 10:02:05;;;;;;;6.05;3.03;;;;;;;33.10;25.49;100054.00;4423093;32;33716;-68
2023/07/09 10:04:33;;;;;;;5.55;3.15;;;;;;;33.17;25.18;100038.00;4424768;32;32923;-71
2023/07/09 10:07:05;;;;;;;6.10;3.20;;;;;;;32.92;25.84;100048.72;4421588;32;35331;-72
2023/07/09 10:09:49;;;;;;;5.82;2.75;;;;;;;33.29;25.14;100040.69;4423781;32;33890;-72
2023/07/09 10:12:26;;;;;;;5.28;2.85;;;;;;;33.50;23.08;100040.97;4424560;32;34097;-73
2023/07/09 10:15:14;;;;;;;5.32;2.87;;;;;;;33.56;23.12;100037.97;4425306;32;32863;-73
2023/07/09 10:17:55;;;;;;;5.78;2.90;;;;;;;33.28;24.69;100038.13;4428653;32;34616;-69
2023/07/09 10:20:41;;;;;;;4.80;3.10;;;;;;;33.69;25.57;100041.47;4426945;32;35245;-74
2023/07/09 10:23:23;;;;;;;5.95;3.58;;;;;;;33.12;26.71;100040.69;4428798;32;34811;-71
2023/07/09 10:26:06;;;;;;;5.82;2.85;;;;;;;33.40;25.58;100036.91;4427451;32;33497;-67
2023/07/09 10:28:57;;;;;;;6.85;3.30;;;;;;;33.56;25.67;100046.31;4428461;32;33340;-73
2023/07/09 10:31:44;;;;;;;4.93;2.78;;;;;;;33.49;26.10;100039.25;4426656;32;33796;-72
2023/07/09 10:34:14;;;;;;;5.20;3.08;;;;;;;34.17;24.26;100034.22;4425648;32;32594;-73
2023/07/09 10:37:01;;;;;;;6.12;3.03;;;;;;;33.88;23.76;100036.41;4423932;32;34567;-71
2023/07/09 10:39:33;;;;;;;5.68;3.00;;;;;;;34.05;23.28;100037.97;4426694;32;34227;-73
2023/07/09 10:42:01;;;;;;;5.65;3.30;;;;;;;33.95;23.14;100035.06;4424599;32;33819;-74
2023/07/09 10:44:38;;;;;;;5.53;3.03;;;;;;;33.75;23.09;100037.66;4429049;32;33777;-72
2023/07/09 10:47:12;;;;;;;6.62;3.12;;;;;;;34.44;23.60;100031.38;4426218;32;34345;-71
2023/07/09 10:49:41;;;;;;;6.53;2.93;;;;;;;34.87;23.93;100035.09;4423375;32;34569;-73
2023/07/09 10:52:09;;;;;;;5.12;2.75;;;;;;;34.50;23.35;100033.94;4426652;32;33714;-71
2023/07/09 10:54:55;;;;;;;5.60;3.37;;;;;;;34.77;23.06;100031.13;4426888;32;34369;-72
2023/07/09 10:57:46;;;;;;;5.40;3.05;;;;;;;34.95;22.33;100032.63;4433643;32;33696;-70
2023/07/09 11:00:22;;;;;;;5.07;2.97;;;;;;;34.96;22.44;100033.44;4428594;32;33741;-72
2023/07/09 11:02:58;;;;;;;5.35;2.85;;;;;;;34.45;22.78;100021.97;4433791;32;35086;-71
2023/07/09 11:05:26;;;;;;;7.18;3.37;;;;;;;34.63;23.81;100020.72;4427519;32;33658;-71
2023/07/09 11:08:08;;;;;;;6.43;3.25;;;;;;;34.40;24.19;100019.13;4427246;32;33707;-73
2023/07/09 11:10:41;;;;;;;6.47;3.05;;;;;;;34.08;24.74;100025.53;4427755;32;33336;-73
2023/07/09 11:13:14;;;;;;;5.78;3.42;;;;;;;33.89;25.12;100027.78;4427889;32;33734;-73
2023/07/09 11:15:45;;;;;;;6.10;3.22;;;;;;;34.11;24.79;100019.44;4423880;32;33616;-71
2023/07/09 11:18:29;;;;;;;7.87;3.33;;;;;;;34.02;25.47;100016.28;4424766;32;34102;-74
2023/07/09 11:21:04;;;;;;;6.15;3.10;;;;;;;33.60;25.47;100018.88;4426687;32;34442;-69
2023/07/09 11:23:50;;;;;;;5.05;3.03;;;;;;;33.56;25.84;100024.09;4429476;32;33850;-69
2023/07/09 11:26:27;;;;;;;4.93;2.97;;;;;;;34.34;24.73;100020.19;4428466;32;33683;-69
2023/07/09 11:29:05;;;;;;;5.85;3.28;;;;;;;34.45;24.62;100011.69;4430530;32;33617;-71
2023/07/09 11:31:38;;;;;;;4.53;2.47;;;;;;;34.44;23.27;100012.78;4426920;32;32825;-71
2023/07/09 11:34:17;;;;;;;6.97;2.75;;;;;;;34.27;23.09;100006.53;4431521;32;33633;-69
2023/07/09 11:37:00;;;;;;;6.87;3.17;;;;;;;34.63;22.52;100004.06;4424384;32;33604;-67
2023/07/09 11:39:30;;;;;;;5.18;2.80;;;;;;;34.81;23.20;100002.78;4423721;32;33543;-69
2023/07/09 11:41:58;;;;;;;6.32;3.10;;;;;;;34.78;22.99;100006.94;4432441;32;33488;-70